sensor_id;sensor_type;location;lat;lon;timestamp;P1;durP1;ratioP1;P2;durP2;ratioP2
51248;SDS011;39642;47.556;18.728;2023-04-28T00:01:20;8.07;;;2.53;;
51248;SDS011;39642;47.556;18.728;2023-04-28T00:03:46;9.27;;;2.47;;
51248;SDS011;39642;47.556;18.728;2023-04-28T00:06:12;9.32;;;2.72;;
51248;SDS011;39642;47.556;18.728;2023-04-28T00:08:39;9.38;;;2.80;;
51248;SDS011;39642;47.556;18.728;2023-04-28T00:11:11;9.52;;;2.67;;
51248;SDS011;39642;47.556;18.728;2023-04-28T00:13:37;9.55;;;2.78;;
51248;SDS011;39642;47.556;18.728;2023-04-28T00:16:03;8.88;;;2.50;;
51248;SDS011;39642;47.556;18.728;2023-04-28T00:18:30;9.10;;;2.35;;
51248;SDS011;39642;47.556;18.728;2023-04-28T00:20:57;12.60;;;2.78;;
51248;SDS011;39642;47.556;18.728;2023-04-28T00:23:23;8.88;;;2.70;;
51248;SDS011;39642;47.556;18.728;2023-04-28T00:25:50;8.82;;;2.67;;
51248;SDS011;39642;47.556;18.728;2023-04-28T00:28:16;7.68;;;2.28;;
51248;SDS011;39642;47.556;18.728;2023-04-28T00:30:42;8.10;;;2.50;;
51248;SDS011;39642;47.556;18.728;2023-04-28T00:33:08;10.23;;;2.80;;
51248;SDS011;39642;47.556;18.728;2023-04-28T00:35:34;8.23;;;2.28;;
51248;SDS011;39642;47.556;18.728;2023-04-28T00:38:00;7.82;;;2.42;;
51248;SDS011;39642;47.556;18.728;2023-04-28T00:40:35;8.70;;;2.60;;
51248;SDS011;39642;47.556;18.728;2023-04-28T00:43:02;7.80;;;2.40;;
51248;SDS011;39642;47.556;18.728;2023-04-28T00:45:28;8.70;;;2.60;;
51248;SDS011;39642;47.556;18.728;2023-04-28T00:47:55;8.30;;;2.42;;
51248;SDS011;39642;47.556;18.728;2023-04-28T00:50:24;9.65;;;2.80;;
51248;SDS011;39642;47.556;18.728;2023-04-28T00:52:51;8.23;;;2.65;;
51248;SDS011;39642;47.556;18.728;2023-04-28T00:55:17;8.10;;;2.30;;
51248;SDS011;39642;47.556;18.728;2023-04-28T00:57:44;6.93;;;2.40;;
51248;SDS011;39642;47.556;18.728;2023-04-28T01:00:10;8.80;;;2.60;;
51248;SDS011;39642;47.556;18.728;2023-04-28T01:02:37;8.45;;;2.42;;
51248;SDS011;39642;47.556;18.728;2023-04-28T01:05:03;10.07;;;2.78;;
51248;SDS011;39642;47.556;18.728;2023-04-28T01:07:30;8.43;;;2.50;;
51248;SDS011;39642;47.556;18.728;2023-04-28T01:09:55;8.10;;;2.40;;
51248;SDS011;39642;47.556;18.728;2023-04-28T01:12:21;7.93;;;2.33;;
51248;SDS011;39642;47.556;18.728;2023-04-28T01:14:48;7.65;;;2.28;;
51248;SDS011;39642;47.556;18.728;2023-04-28T01:17:15;9.05;;;2.30;;
51248;SDS011;39642;47.556;18.728;2023-04-28T01:19:41;9.43;;;2.30;;
51248;SDS011;39642;47.556;18.728;2023-04-28T01:22:07;8.10;;;2.40;;
51248;SDS011;39642;47.556;18.728;2023-04-28T01:24:35;8.43;;;2.47;;
51248;SDS011;39642;47.556;18.728;2023-04-28T01:27:01;8.05;;;2.47;;
51248;SDS011;39642;47.556;18.728;2023-04-28T01:29:27;8.77;;;2.30;;
51248;SDS011;39642;47.556;18.728;2023-04-28T01:31:53;7.90;;;2.42;;
51248;SDS011;39642;47.556;18.728;2023-04-28T01:34:19;7.70;;;2.53;;
51248;SDS011;39642;47.556;18.728;2023-04-28T01:36:45;7.82;;;2.30;;
51248;SDS011;39642;47.556;18.728;2023-04-28T01:39:11;9.23;;;2.70;;
51248;SDS011;39642;47.556;18.728;2023-04-28T01:41:37;8.77;;;2.47;;
51248;SDS011;39642;47.556;18.728;2023-04-28T01:44:02;10.23;;;2.62;;
51248;SDS011;39642;47.556;18.728;2023-04-28T01:46:30;8.80;;;2.50;;
51248;SDS011;39642;47.556;18.728;2023-04-28T01:48:56;7.72;;;2.45;;
51248;SDS011;39642;47.556;18.728;2023-04-28T01:51:22;7.68;;;2.40;;
51248;SDS011;39642;47.556;18.728;2023-04-28T01:53:48;7.30;;;2.10;;
51248;SDS011;39642;47.556;18.728;2023-04-28T01:56:13;7.53;;;2.33;;
51248;SDS011;39642;47.556;18.728;2023-04-28T01:58:39;8.90;;;2.40;;
51248;SDS011;39642;47.556;18.728;2023-04-28T02:01:05;8.18;;;2.50;;
51248;SDS011;39642;47.556;18.728;2023-04-28T02:03:31;8.88;;;2.47;;
51248;SDS011;39642;47.556;18.728;2023-04-28T02:05:57;8.05;;;2.58;;
51248;SDS011;39642;47.556;18.728;2023-04-28T02:08:23;7.90;;;2.50;;
51248;SDS011;39642;47.556;18.728;2023-04-28T02:10:49;7.90;;;2.25;;
51248;SDS011;39642;47.556;18.728;2023-04-28T02:13:15;8.20;;;2.75;;
51248;SDS011;39642;47.556;18.728;2023-04-28T02:15:41;8.77;;;2.50;;
51248;SDS011;39642;47.556;18.728;2023-04-28T02:18:11;8.65;;;2.62;;
51248;SDS011;39642;47.556;18.728;2023-04-28T02:20:37;8.43;;;2.65;;
51248;SDS011;39642;47.556;18.728;2023-04-28T02:23:03;9.07;;;2.40;;
51248;SDS011;39642;47.556;18.728;2023-04-28T02:25:29;8.38;;;2.42;;
51248;SDS011;39642;47.556;18.728;2023-04-28T02:27:54;7.15;;;2.40;;
51248;SDS011;39642;47.556;18.728;2023-04-28T02:30:21;8.15;;;2.65;;
51248;SDS011;39642;47.556;18.728;2023-04-28T02:32:47;7.62;;;2.30;;
51248;SDS011;39642;47.556;18.728;2023-04-28T02:35:13;9.20;;;2.55;;
51248;SDS011;39642;47.556;18.728;2023-04-28T02:37:39;8.40;;;2.60;;
51248;SDS011;39642;47.556;18.728;2023-04-28T02:40:05;8.05;;;2.60;;
51248;SDS011;39642;47.556;18.728;2023-04-28T02:42:32;8.40;;;2.50;;
51248;SDS011;39642;47.556;18.728;2023-04-28T02:44:58;8.68;;;2.60;;
51248;SDS011;39642;47.556;18.728;2023-04-28T02:47:24;8.20;;;2.50;;
51248;SDS011;39642;47.556;18.728;2023-04-28T02:49:49;7.55;;;2.37;;
51248;SDS011;39642;47.556;18.728;2023-04-28T02:52:15;7.60;;;2.47;;
51248;SDS011;39642;47.556;18.728;2023-04-28T02:54:41;8.07;;;2.50;;
51248;SDS011;39642;47.556;18.728;2023-04-28T02:57:07;7.32;;;2.30;;
51248;SDS011;39642;47.556;18.728;2023-04-28T02:59:33;7.87;;;2.50;;
51248;SDS011;39642;47.556;18.728;2023-04-28T03:02:00;8.07;;;2.45;;
51248;SDS011;39642;47.556;18.728;2023-04-28T03:04:25;8.95;;;2.55;;
51248;SDS011;39642;47.556;18.728;2023-04-28T03:06:51;8.32;;;2.50;;
51248;SDS011;39642;47.556;18.728;2023-04-28T03:09:17;8.50;;;2.50;;
51248;SDS011;39642;47.556;18.728;2023-04-28T03:11:43;6.97;;;2.30;;
51248;SDS011;39642;47.556;18.728;2023-04-28T03:14:09;7.72;;;2.35;;
51248;SDS011;39642;47.556;18.728;2023-04-28T03:16:35;9.98;;;2.50;;
51248;SDS011;39642;47.556;18.728;2023-04-28T03:19:02;7.57;;;2.45;;
51248;SDS011;39642;47.556;18.728;2023-04-28T03:21:28;7.40;;;2.53;;
51248;SDS011;39642;47.556;18.728;2023-04-28T03:23:54;8.13;;;2.28;;
51248;SDS011;39642;47.556;18.728;2023-04-28T03:26:20;8.68;;;2.40;;
51248;SDS011;39642;47.556;18.728;2023-04-28T03:28:46;9.32;;;2.50;;
51248;SDS011;39642;47.556;18.728;2023-04-28T03:31:12;6.93;;;2.30;;
51248;SDS011;39642;47.556;18.728;2023-04-28T03:33:40;8.38;;;2.58;;
51248;SDS011;39642;47.556;18.728;2023-04-28T03:36:06;8.48;;;2.50;;
51248;SDS011;39642;47.556;18.728;2023-04-28T03:38:33;8.18;;;2.72;;
51248;SDS011;39642;47.556;18.728;2023-04-28T03:40:58;8.18;;;2.33;;
51248;SDS011;39642;47.556;18.728;2023-04-28T03:43:24;6.95;;;2.35;;
51248;SDS011;39642;47.556;18.728;2023-04-28T03:45:50;8.55;;;2.47;;
51248;SDS011;39642;47.556;18.728;2023-04-28T03:48:16;6.72;;;2.20;;
51248;SDS011;39642;47.556;18.728;2023-04-28T03:50:42;8.75;;;2.55;;
51248;SDS011;39642;47.556;18.728;2023-04-28T03:53:10;7.50;;;2.35;;
51248;SDS011;39642;47.556;18.728;2023-04-28T03:55:36;7.80;;;2.50;;
51248;SDS011;39642;47.556;18.728;2023-04-28T03:58:02;7.95;;;2.37;;
51248;SDS011;39642;47.556;18.728;2023-04-28T04:00:28;8.98;;;2.30;;
51248;SDS011;39642;47.556;18.728;2023-04-28T04:02:53;8.13;;;2.45;;
51248;SDS011;39642;47.556;18.728;2023-04-28T04:05:19;6.68;;;2.20;;
51248;SDS011;39642;47.556;18.728;2023-04-28T04:07:45;8.88;;;2.58;;
51248;SDS011;39642;47.556;18.728;2023-04-28T04:10:11;9.05;;;2.50;;
51248;SDS011;39642;47.556;18.728;2023-04-28T04:12:37;8.20;;;2.30;;
51248;SDS011;39642;47.556;18.728;2023-04-28T04:15:03;8.25;;;2.53;;
51248;SDS011;39642;47.556;18.728;2023-04-28T04:17:29;9.18;;;2.50;;
51248;SDS011;39642;47.556;18.728;2023-04-28T04:19:56;9.35;;;2.65;;
51248;SDS011;39642;47.556;18.728;2023-04-28T04:22:21;7.78;;;2.60;;
51248;SDS011;39642;47.556;18.728;2023-04-28T04:24:47;7.30;;;2.33;;
51248;SDS011;39642;47.556;18.728;2023-04-28T04:27:13;8.55;;;2.75;;
51248;SDS011;39642;47.556;18.728;2023-04-28T04:29:39;9.20;;;2.60;;
51248;SDS011;39642;47.556;18.728;2023-04-28T04:32:05;7.55;;;2.60;;
51248;SDS011;39642;47.556;18.728;2023-04-28T04:34:31;8.55;;;2.75;;
51248;SDS011;39642;47.556;18.728;2023-04-28T04:36:57;7.22;;;2.28;;
51248;SDS011;39642;47.556;18.728;2023-04-28T04:39:23;9.68;;;2.90;;
51248;SDS011;39642;47.556;18.728;2023-04-28T04:41:48;9.02;;;2.70;;
51248;SDS011;39642;47.556;18.728;2023-04-28T04:44:14;10.32;;;2.90;;
51248;SDS011;39642;47.556;18.728;2023-04-28T04:46:40;10.13;;;3.00;;
51248;SDS011;39642;47.556;18.728;2023-04-28T04:49:06;11.15;;;2.97;;
51248;SDS011;39642;47.556;18.728;2023-04-28T04:51:32;11.12;;;3.30;;
51248;SDS011;39642;47.556;18.728;2023-04-28T04:53:58;13.48;;;3.35;;
51248;SDS011;39642;47.556;18.728;2023-04-28T04:56:24;10.10;;;3.35;;
51248;SDS011;39642;47.556;18.728;2023-04-28T04:58:50;12.15;;;3.47;;
51248;SDS011;39642;47.556;18.728;2023-04-28T05:01:17;11.30;;;3.22;;
51248;SDS011;39642;47.556;18.728;2023-04-28T05:03:42;11.05;;;3.37;;
51248;SDS011;39642;47.556;18.728;2023-04-28T05:06:08;10.35;;;3.25;;
51248;SDS011;39642;47.556;18.728;2023-04-28T05:08:40;11.43;;;3.75;;
51248;SDS011;39642;47.556;18.728;2023-04-28T05:11:06;11.68;;;3.70;;
51248;SDS011;39642;47.556;18.728;2023-04-28T05:13:32;11.55;;;4.25;;
51248;SDS011;39642;47.556;18.728;2023-04-28T05:15:58;12.30;;;3.45;;
51248;SDS011;39642;47.556;18.728;2023-04-28T05:18:23;14.07;;;5.05;;
51248;SDS011;39642;47.556;18.728;2023-04-28T05:20:50;15.43;;;5.35;;
51248;SDS011;39642;47.556;18.728;2023-04-28T05:23:15;15.55;;;5.78;;
51248;SDS011;39642;47.556;18.728;2023-04-28T05:25:41;19.40;;;6.50;;
51248;SDS011;39642;47.556;18.728;2023-04-28T05:28:08;19.23;;;6.37;;
51248;SDS011;39642;47.556;18.728;2023-04-28T05:30:34;35.05;;;8.48;;
51248;SDS011;39642;47.556;18.728;2023-04-28T05:33:00;20.80;;;5.72;;
51248;SDS011;39642;47.556;18.728;2023-04-28T05:35:26;14.60;;;5.28;;
51248;SDS011;39642;47.556;18.728;2023-04-28T05:37:52;18.55;;;5.90;;
51248;SDS011;39642;47.556;18.728;2023-04-28T05:40:18;14.63;;;5.10;;
51248;SDS011;39642;47.556;18.728;2023-04-28T05:42:44;20.48;;;6.50;;
51248;SDS011;39642;47.556;18.728;2023-04-28T05:45:10;14.70;;;5.00;;
51248;SDS011;39642;47.556;18.728;2023-04-28T05:47:36;20.17;;;5.85;;
51248;SDS011;39642;47.556;18.728;2023-04-28T05:50:02;14.18;;;4.97;;
51248;SDS011;39642;47.556;18.728;2023-04-28T05:52:28;22.40;;;6.50;;
51248;SDS011;39642;47.556;18.728;2023-04-28T05:54:54;18.17;;;5.50;;
51248;SDS011;39642;47.556;18.728;2023-04-28T05:57:20;16.05;;;5.32;;
51248;SDS011;39642;47.556;18.728;2023-04-28T05:59:46;17.77;;;5.47;;
51248;SDS011;39642;47.556;18.728;2023-04-28T06:02:12;22.62;;;7.25;;
51248;SDS011;39642;47.556;18.728;2023-04-28T06:04:38;18.83;;;6.43;;
51248;SDS011;39642;47.556;18.728;2023-04-28T06:07:04;16.37;;;6.00;;
51248;SDS011;39642;47.556;18.728;2023-04-28T06:09:30;20.90;;;6.72;;
51248;SDS011;39642;47.556;18.728;2023-04-28T06:11:56;19.48;;;6.30;;
51248;SDS011;39642;47.556;18.728;2023-04-28T06:14:22;23.60;;;7.28;;
51248;SDS011;39642;47.556;18.728;2023-04-28T06:16:48;25.73;;;9.10;;
51248;SDS011;39642;47.556;18.728;2023-04-28T06:19:15;15.43;;;5.65;;
51248;SDS011;39642;47.556;18.728;2023-04-28T06:21:43;19.50;;;6.20;;
51248;SDS011;39642;47.556;18.728;2023-04-28T06:24:10;19.08;;;7.35;;
51248;SDS011;39642;47.556;18.728;2023-04-28T06:26:36;14.73;;;6.57;;
51248;SDS011;39642;47.556;18.728;2023-04-28T06:29:02;16.23;;;6.18;;
51248;SDS011;39642;47.556;18.728;2023-04-28T06:31:28;15.60;;;6.18;;
51248;SDS011;39642;47.556;18.728;2023-04-28T06:33:54;14.40;;;4.90;;
51248;SDS011;39642;47.556;18.728;2023-04-28T06:36:20;19.62;;;6.10;;
51248;SDS011;39642;47.556;18.728;2023-04-28T06:38:45;14.73;;;5.32;;
51248;SDS011;39642;47.556;18.728;2023-04-28T06:41:11;18.60;;;6.15;;
51248;SDS011;39642;47.556;18.728;2023-04-28T06:43:37;18.08;;;7.40;;
51248;SDS011;39642;47.556;18.728;2023-04-28T06:46:03;19.52;;;6.65;;
51248;SDS011;39642;47.556;18.728;2023-04-28T06:48:30;21.90;;;7.47;;
51248;SDS011;39642;47.556;18.728;2023-04-28T06:50:56;22.70;;;7.68;;
51248;SDS011;39642;47.556;18.728;2023-04-28T06:53:21;30.27;;;9.93;;
51248;SDS011;39642;47.556;18.728;2023-04-28T06:55:47;32.33;;;9.07;;
51248;SDS011;39642;47.556;18.728;2023-04-28T06:58:13;21.70;;;7.20;;
51248;SDS011;39642;47.556;18.728;2023-04-28T07:00:39;26.35;;;7.50;;
51248;SDS011;39642;47.556;18.728;2023-04-28T07:03:05;22.37;;;6.40;;
51248;SDS011;39642;47.556;18.728;2023-04-28T07:05:31;18.90;;;6.43;;
51248;SDS011;39642;47.556;18.728;2023-04-28T07:07:58;19.33;;;5.72;;
51248;SDS011;39642;47.556;18.728;2023-04-28T07:10:24;17.33;;;5.78;;
51248;SDS011;39642;47.556;18.728;2023-04-28T07:12:50;21.30;;;6.03;;
51248;SDS011;39642;47.556;18.728;2023-04-28T07:15:16;24.30;;;6.37;;
51248;SDS011;39642;47.556;18.728;2023-04-28T07:17:42;25.95;;;6.28;;
51248;SDS011;39642;47.556;18.728;2023-04-28T07:20:08;22.92;;;6.80;;
51248;SDS011;39642;47.556;18.728;2023-04-28T07:22:35;17.00;;;5.32;;
51248;SDS011;39642;47.556;18.728;2023-04-28T07:25:01;18.90;;;5.72;;
51248;SDS011;39642;47.556;18.728;2023-04-28T07:27:27;27.08;;;6.90;;
51248;SDS011;39642;47.556;18.728;2023-04-28T07:29:52;25.00;;;6.00;;
51248;SDS011;39642;47.556;18.728;2023-04-28T07:32:18;21.70;;;6.35;;
51248;SDS011;39642;47.556;18.728;2023-04-28T07:34:44;20.37;;;5.57;;
51248;SDS011;39642;47.556;18.728;2023-04-28T07:37:10;21.92;;;6.07;;
51248;SDS011;39642;47.556;18.728;2023-04-28T07:39:37;19.10;;;6.18;;
51248;SDS011;39642;47.556;18.728;2023-04-28T07:42:04;18.70;;;6.82;;
51248;SDS011;39642;47.556;18.728;2023-04-28T07:44:30;24.10;;;6.57;;
51248;SDS011;39642;47.556;18.728;2023-04-28T07:46:57;19.90;;;6.18;;
51248;SDS011;39642;47.556;18.728;2023-04-28T07:49:25;27.85;;;6.43;;
51248;SDS011;39642;47.556;18.728;2023-04-28T07:51:59;17.62;;;5.28;;
51248;SDS011;39642;47.556;18.728;2023-04-28T07:54:27;22.10;;;5.57;;
51248;SDS011;39642;47.556;18.728;2023-04-28T07:56:54;27.60;;;5.90;;
51248;SDS011;39642;47.556;18.728;2023-04-28T07:59:21;22.02;;;4.90;;
51248;SDS011;39642;47.556;18.728;2023-04-28T08:01:46;20.58;;;4.85;;
51248;SDS011;39642;47.556;18.728;2023-04-28T08:04:12;16.33;;;4.90;;
51248;SDS011;39642;47.556;18.728;2023-04-28T08:06:39;14.90;;;4.55;;
51248;SDS011;39642;47.556;18.728;2023-04-28T08:09:05;22.58;;;5.87;;
51248;SDS011;39642;47.556;18.728;2023-04-28T08:11:31;16.65;;;4.40;;
51248;SDS011;39642;47.556;18.728;2023-04-28T08:13:57;23.62;;;5.68;;
51248;SDS011;39642;47.556;18.728;2023-04-28T08:16:27;22.40;;;5.12;;
51248;SDS011;39642;47.556;18.728;2023-04-28T08:18:54;19.90;;;5.50;;
51248;SDS011;39642;47.556;18.728;2023-04-28T08:21:20;18.08;;;4.57;;
51248;SDS011;39642;47.556;18.728;2023-04-28T08:23:46;18.02;;;4.68;;
51248;SDS011;39642;47.556;18.728;2023-04-28T08:26:12;14.90;;;4.53;;
51248;SDS011;39642;47.556;18.728;2023-04-28T08:28:38;18.58;;;4.62;;
51248;SDS011;39642;47.556;18.728;2023-04-28T08:31:04;17.98;;;4.30;;
51248;SDS011;39642;47.556;18.728;2023-04-28T08:33:30;20.58;;;4.53;;
51248;SDS011;39642;47.556;18.728;2023-04-28T08:35:56;14.32;;;4.07;;
51248;SDS011;39642;47.556;18.728;2023-04-28T08:38:22;17.87;;;4.20;;
51248;SDS011;39642;47.556;18.728;2023-04-28T08:40:49;14.25;;;3.87;;
51248;SDS011;39642;47.556;18.728;2023-04-28T08:43:16;20.67;;;4.90;;
51248;SDS011;39642;47.556;18.728;2023-04-28T08:45:42;25.65;;;4.70;;
51248;SDS011;39642;47.556;18.728;2023-04-28T08:48:16;15.45;;;4.60;;
51248;SDS011;39642;47.556;18.728;2023-04-28T08:50:48;22.95;;;4.30;;
51248;SDS011;39642;47.556;18.728;2023-04-28T08:53:21;23.38;;;4.72;;
51248;SDS011;39642;47.556;18.728;2023-04-28T08:58:22;25.12;;;4.62;;
51248;SDS011;39642;47.556;18.728;2023-04-28T09:00:50;29.90;;;5.07;;
51248;SDS011;39642;47.556;18.728;2023-04-28T09:03:16;30.40;;;5.30;;
51248;SDS011;39642;47.556;18.728;2023-04-28T09:05:42;19.80;;;5.05;;
51248;SDS011;39642;47.556;18.728;2023-04-28T09:08:08;25.55;;;5.07;;
51248;SDS011;39642;47.556;18.728;2023-04-28T09:10:36;19.50;;;4.50;;
51248;SDS011;39642;47.556;18.728;2023-04-28T09:13:03;18.95;;;4.40;;
51248;SDS011;39642;47.556;18.728;2023-04-28T09:15:36;19.27;;;4.30;;
51248;SDS011;39642;47.556;18.728;2023-04-28T09:18:06;15.10;;;4.07;;
51248;SDS011;39642;47.556;18.728;2023-04-28T09:20:35;26.10;;;4.22;;
51248;SDS011;39642;47.556;18.728;2023-04-28T09:23:17;17.45;;;4.10;;
51248;SDS011;39642;47.556;18.728;2023-04-28T09:25:57;20.17;;;4.22;;
51248;SDS011;39642;47.556;18.728;2023-04-28T09:28:26;16.50;;;3.97;;
51248;SDS011;39642;47.556;18.728;2023-04-28T09:30:53;15.43;;;3.47;;
51248;SDS011;39642;47.556;18.728;2023-04-28T09:33:19;13.68;;;3.97;;
51248;SDS011;39642;47.556;18.728;2023-04-28T09:35:46;23.23;;;4.05;;
51248;SDS011;39642;47.556;18.728;2023-04-28T09:38:13;13.52;;;3.28;;
51248;SDS011;39642;47.556;18.728;2023-04-28T09:41:13;14.15;;;3.90;;
51248;SDS011;39642;47.556;18.728;2023-04-28T09:43:33;13.77;;;4.37;;
51248;SDS011;39642;47.556;18.728;2023-04-28T09:46:03;24.92;;;4.53;;
51248;SDS011;39642;47.556;18.728;2023-04-28T09:51:03;21.90;;;4.60;;
51248;SDS011;39642;47.556;18.728;2023-04-28T09:53:30;24.02;;;5.25;;
51248;SDS011;39642;47.556;18.728;2023-04-28T09:55:58;29.42;;;4.60;;
51248;SDS011;39642;47.556;18.728;2023-04-28T09:58:26;23.15;;;5.10;;
51248;SDS011;39642;47.556;18.728;2023-04-28T10:00:54;21.62;;;5.18;;
51248;SDS011;39642;47.556;18.728;2023-04-28T10:03:22;27.85;;;5.75;;
51248;SDS011;39642;47.556;18.728;2023-04-28T10:05:49;34.55;;;4.87;;
51248;SDS011;39642;47.556;18.728;2023-04-28T10:08:18;20.35;;;4.25;;
51248;SDS011;39642;47.556;18.728;2023-04-28T10:10:45;22.00;;;4.43;;
51248;SDS011;39642;47.556;18.728;2023-04-28T10:13:16;21.30;;;4.80;;
51248;SDS011;39642;47.556;18.728;2023-04-28T10:15:44;20.25;;;4.28;;
51248;SDS011;39642;47.556;18.728;2023-04-28T10:18:14;22.23;;;4.50;;
51248;SDS011;39642;47.556;18.728;2023-04-28T10:20:41;17.52;;;4.55;;
51248;SDS011;39642;47.556;18.728;2023-04-28T10:26:00;16.67;;;4.05;;
51248;SDS011;39642;47.556;18.728;2023-04-28T10:28:28;20.48;;;4.55;;
51248;SDS011;39642;47.556;18.728;2023-04-28T10:33:36;21.42;;;4.10;;
51248;SDS011;39642;47.556;18.728;2023-04-28T10:36:03;20.62;;;4.65;;
51248;SDS011;39642;47.556;18.728;2023-04-28T10:38:30;29.77;;;4.85;;
51248;SDS011;39642;47.556;18.728;2023-04-28T10:40:56;26.42;;;5.03;;
51248;SDS011;39642;47.556;18.728;2023-04-28T10:43:37;15.90;;;3.95;;
51248;SDS011;39642;47.556;18.728;2023-04-28T10:46:05;19.70;;;4.87;;
51248;SDS011;39642;47.556;18.728;2023-04-28T10:58:47;20.45;;;6.00;;
51248;SDS011;39642;47.556;18.728;2023-04-28T11:08:51;19.42;;;3.90;;
51248;SDS011;39642;47.556;18.728;2023-04-28T11:11:24;16.25;;;4.05;;
51248;SDS011;39642;47.556;18.728;2023-04-28T11:13:51;17.98;;;4.20;;
51248;SDS011;39642;47.556;18.728;2023-04-28T11:16:20;23.23;;;4.45;;
51248;SDS011;39642;47.556;18.728;2023-04-28T11:18:52;19.33;;;4.62;;
51248;SDS011;39642;47.556;18.728;2023-04-28T11:21:18;13.80;;;4.07;;
51248;SDS011;39642;47.556;18.728;2023-04-28T11:23:45;20.65;;;4.53;;
51248;SDS011;39642;47.556;18.728;2023-04-28T11:26:12;22.50;;;4.25;;
51248;SDS011;39642;47.556;18.728;2023-04-28T11:28:55;15.93;;;4.18;;
51248;SDS011;39642;47.556;18.728;2023-04-28T11:31:22;21.25;;;4.30;;
51248;SDS011;39642;47.556;18.728;2023-04-28T11:33:53;38.72;;;5.18;;
51248;SDS011;39642;47.556;18.728;2023-04-28T11:36:23;21.42;;;4.47;;
51248;SDS011;39642;47.556;18.728;2023-04-28T11:38:57;20.67;;;4.60;;
51248;SDS011;39642;47.556;18.728;2023-04-28T11:41:24;26.42;;;5.10;;
51248;SDS011;39642;47.556;18.728;2023-04-28T11:43:51;26.70;;;4.80;;
51248;SDS011;39642;47.556;18.728;2023-04-28T11:46:18;30.40;;;4.72;;
51248;SDS011;39642;47.556;18.728;2023-04-28T11:48:45;29.48;;;4.85;;
51248;SDS011;39642;47.556;18.728;2023-04-28T11:51:29;33.88;;;5.10;;
51248;SDS011;39642;47.556;18.728;2023-04-28T11:53:58;48.70;;;6.03;;
51248;SDS011;39642;47.556;18.728;2023-04-28T11:56:25;33.22;;;5.18;;
51248;SDS011;39642;47.556;18.728;2023-04-28T11:59:01;26.80;;;4.78;;
51248;SDS011;39642;47.556;18.728;2023-04-28T12:01:44;22.15;;;4.40;;
51248;SDS011;39642;47.556;18.728;2023-04-28T12:04:11;36.80;;;5.10;;
51248;SDS011;39642;47.556;18.728;2023-04-28T12:06:39;24.05;;;4.28;;
51248;SDS011;39642;47.556;18.728;2023-04-28T12:09:15;27.17;;;4.78;;
51248;SDS011;39642;47.556;18.728;2023-04-28T12:14:19;22.77;;;4.60;;
51248;SDS011;39642;47.556;18.728;2023-04-28T12:16:45;22.50;;;3.83;;
51248;SDS011;39642;47.556;18.728;2023-04-28T12:19:13;19.20;;;3.72;;
51248;SDS011;39642;47.556;18.728;2023-04-28T12:21:40;20.50;;;4.03;;
51248;SDS011;39642;47.556;18.728;2023-04-28T12:24:13;24.48;;;3.97;;
51248;SDS011;39642;47.556;18.728;2023-04-28T12:26:44;20.75;;;3.83;;
51248;SDS011;39642;47.556;18.728;2023-04-28T12:29:33;20.60;;;4.00;;
51248;SDS011;39642;47.556;18.728;2023-04-28T12:32:09;33.40;;;4.78;;
51248;SDS011;39642;47.556;18.728;2023-04-28T12:34:36;30.20;;;4.90;;
51248;SDS011;39642;47.556;18.728;2023-04-28T12:37:04;33.05;;;4.40;;
51248;SDS011;39642;47.556;18.728;2023-04-28T12:39:31;22.42;;;4.43;;
51248;SDS011;39642;47.556;18.728;2023-04-28T12:41:58;29.02;;;4.32;;
51248;SDS011;39642;47.556;18.728;2023-04-28T12:44:27;25.37;;;4.15;;
51248;SDS011;39642;47.556;18.728;2023-04-28T12:47:06;20.40;;;4.00;;
51248;SDS011;39642;47.556;18.728;2023-04-28T12:51:59;26.85;;;4.45;;
51248;SDS011;39642;47.556;18.728;2023-04-28T12:54:25;40.00;;;4.87;;
51248;SDS011;39642;47.556;18.728;2023-04-28T12:56:52;26.95;;;4.62;;
51248;SDS011;39642;47.556;18.728;2023-04-28T12:59:19;35.63;;;5.25;;
51248;SDS011;39642;47.556;18.728;2023-04-28T13:01:46;30.25;;;4.95;;
51248;SDS011;39642;47.556;18.728;2023-04-28T13:04:12;30.45;;;4.95;;
51248;SDS011;39642;47.556;18.728;2023-04-28T13:06:38;32.20;;;4.93;;
51248;SDS011;39642;47.556;18.728;2023-04-28T13:09:07;27.80;;;4.45;;
51248;SDS011;39642;47.556;18.728;2023-04-28T13:11:33;26.48;;;4.85;;
51248;SDS011;39642;47.556;18.728;2023-04-28T13:13:58;33.38;;;4.80;;
51248;SDS011;39642;47.556;18.728;2023-04-28T13:16:24;17.73;;;4.20;;
51248;SDS011;39642;47.556;18.728;2023-04-28T13:18:53;20.37;;;4.18;;
51248;SDS011;39642;47.556;18.728;2023-04-28T13:21:21;22.20;;;4.65;;
51248;SDS011;39642;47.556;18.728;2023-04-28T13:23:48;22.40;;;4.35;;
51248;SDS011;39642;47.556;18.728;2023-04-28T13:26:14;21.10;;;4.65;;
51248;SDS011;39642;47.556;18.728;2023-04-28T13:28:40;47.33;;;7.85;;
51248;SDS011;39642;47.556;18.728;2023-04-28T13:31:06;29.55;;;6.03;;
51248;SDS011;39642;47.556;18.728;2023-04-28T13:33:33;23.80;;;5.10;;
51248;SDS011;39642;47.556;18.728;2023-04-28T13:35:59;29.92;;;5.10;;
51248;SDS011;39642;47.556;18.728;2023-04-28T13:38:25;22.92;;;5.00;;
51248;SDS011;39642;47.556;18.728;2023-04-28T13:40:51;26.52;;;4.90;;
51248;SDS011;39642;47.556;18.728;2023-04-28T13:43:17;25.17;;;4.60;;
51248;SDS011;39642;47.556;18.728;2023-04-28T13:45:43;30.05;;;5.03;;
51248;SDS011;39642;47.556;18.728;2023-04-28T13:48:09;15.70;;;4.20;;
51248;SDS011;39642;47.556;18.728;2023-04-28T13:50:36;18.58;;;4.35;;
51248;SDS011;39642;47.556;18.728;2023-04-28T13:53:02;21.30;;;4.62;;
51248;SDS011;39642;47.556;18.728;2023-04-28T13:55:28;27.73;;;4.80;;
51248;SDS011;39642;47.556;18.728;2023-04-28T13:57:54;28.33;;;5.37;;
51248;SDS011;39642;47.556;18.728;2023-04-28T14:00:21;26.87;;;4.45;;
51248;SDS011;39642;47.556;18.728;2023-04-28T14:02:49;23.98;;;4.40;;
51248;SDS011;39642;47.556;18.728;2023-04-28T14:05:15;32.33;;;4.70;;
51248;SDS011;39642;47.556;18.728;2023-04-28T14:07:41;28.75;;;5.32;;
51248;SDS011;39642;47.556;18.728;2023-04-28T14:10:08;39.38;;;6.53;;
51248;SDS011;39642;47.556;18.728;2023-04-28T14:12:35;36.28;;;6.55;;
51248;SDS011;39642;47.556;18.728;2023-04-28T14:15:01;24.15;;;4.30;;
51248;SDS011;39642;47.556;18.728;2023-04-28T14:17:27;19.62;;;4.45;;
51248;SDS011;39642;47.556;18.728;2023-04-28T14:19:53;19.27;;;4.60;;
51248;SDS011;39642;47.556;18.728;2023-04-28T14:22:19;14.82;;;3.78;;
51248;SDS011;39642;47.556;18.728;2023-04-28T14:24:45;22.02;;;4.07;;
51248;SDS011;39642;47.556;18.728;2023-04-28T14:27:11;21.48;;;4.32;;
51248;SDS011;39642;47.556;18.728;2023-04-28T14:29:37;18.00;;;3.80;;
51248;SDS011;39642;47.556;18.728;2023-04-28T14:32:04;18.55;;;4.40;;
51248;SDS011;39642;47.556;18.728;2023-04-28T14:34:30;18.98;;;4.18;;
51248;SDS011;39642;47.556;18.728;2023-04-28T14:36:56;15.63;;;3.97;;
51248;SDS011;39642;47.556;18.728;2023-04-28T14:39:22;14.82;;;3.87;;
51248;SDS011;39642;47.556;18.728;2023-04-28T14:41:47;15.98;;;3.67;;
51248;SDS011;39642;47.556;18.728;2023-04-28T14:44:13;16.30;;;3.67;;
51248;SDS011;39642;47.556;18.728;2023-04-28T14:46:39;14.70;;;3.90;;
51248;SDS011;39642;47.556;18.728;2023-04-28T14:49:05;16.10;;;4.10;;
51248;SDS011;39642;47.556;18.728;2023-04-28T14:51:32;12.63;;;3.28;;
51248;SDS011;39642;47.556;18.728;2023-04-28T14:53:58;16.85;;;3.90;;
51248;SDS011;39642;47.556;18.728;2023-04-28T14:56:24;12.63;;;3.85;;
51248;SDS011;39642;47.556;18.728;2023-04-28T14:58:51;15.18;;;3.75;;